Time;durP1;ratioP1;P1;durP2;ratioP2;P2;SDS_P1;SDS_P2;PMS_P1;PMS_P2;Temp;Humidity;BMP_temperature;BMP_pressure;BME280_temperature;BME280_humidity;BME280_pressure;Samples;Min_cycle;Max_cycle;Signal;HPM_P1;HPM_P2
2021/12/27 00:00:17;;;;;;;7.07;5.83;;;;;;;4.16;100.00;94256.63;4976921;28;20219;-68
2021/12/27 00:02:43;;;;;;;6.87;6.10;;;;;;;4.19;100.00;94253.88;4977443;28;20206;-69
2021/12/27 00:05:09;;;;;;;7.03;5.93;;;;;;;4.20;100.00;94246.56;4979400;28;20291;-70
2021/12/27 00:07:34;;;;;;;6.67;5.97;;;;;;;4.21;100.00;94245.41;4980925;28;20282;-70
2021/12/27 00:10:00;;;;;;;6.87;5.63;;;;;;;4.22;100.00;94253.13;4981125;28;20196;-70
2021/12/27 00:12:26;;;;;;;7.50;6.17;;;;;;;4.24;100.00;94248.09;4981292;28;20195;-70
2021/12/27 00:14:52;;;;;;;6.57;5.83;;;;;;;4.22;100.00;94252.38;4997937;28;20192;-70
2021/12/27 00:17:17;;;;;;;7.40;5.70;;;;;;;4.20;100.00;94243.88;4981174;28;20274;-64
2021/12/27 00:19:42;;;;;;;7.27;5.80;;;;;;;4.23;100.00;94248.50;4981151;28;20334;-76
2021/12/27 00:22:08;;;;;;;6.27;5.33;;;;;;;4.25;100.00;94249.63;4980750;28;20258;-57
2021/12/27 00:24:33;;;;;;;7.97;5.60;;;;;;;4.28;100.00;94253.47;4980293;28;20188;-57
2021/12/27 00:26:58;;;;;;;6.40;5.33;;;;;;;4.29;100.00;94255.03;4980172;28;20184;-57
2021/12/27 00:29:24;;;;;;;7.37;5.80;;;;;;;4.30;100.00;94248.47;4980979;28;20220;-57
2021/12/27 00:31:49;;;;;;;6.53;5.23;;;;;;;4.33;100.00;94255.81;4980425;28;20199;-57
2021/12/27 00:34:15;;;;;;;6.00;5.20;;;;;;;4.35;100.00;94248.84;4980038;28;20298;-57
2021/12/27 00:36:40;;;;;;;6.00;5.00;;;;;;;4.36;100.00;94244.97;4980526;28;20202;-65
2021/12/27 00:39:06;;;;;;;6.30;5.03;;;;;;;4.38;100.00;94252.69;4980319;28;20274;-76
2021/12/27 00:41:31;;;;;;;6.20;4.80;;;;;;;4.36;100.00;94249.59;4979926;28;20211;-76
2021/12/27 00:43:56;;;;;;;5.80;5.20;;;;;;;4.35;100.00;94256.16;4980302;28;20188;-76
2021/12/27 00:46:22;;;;;;;6.07;5.47;;;;;;;4.38;100.00;94252.69;4980188;28;20184;-75
2021/12/27 00:48:47;;;;;;;6.10;4.80;;;;;;;4.38;100.00;94239.19;4980118;28;20196;-76
2021/12/27 00:51:13;;;;;;;5.07;4.57;;;;;;;4.33;100.00;94239.59;4980114;28;20201;-75
2021/12/27 00:53:38;;;;;;;5.47;4.77;;;;;;;4.33;100.00;94239.59;4980079;28;20206;-65
2021/12/27 00:56:04;;;;;;;6.30;5.27;;;;;;;4.32;100.00;94240.72;4979926;28;20211;-68
2021/12/27 00:58:29;;;;;;;5.77;5.10;;;;;;;4.31;100.00;94242.69;4979910;28;20199;-58
2021/12/27 01:00:54;;;;;;;6.40;5.10;;;;;;;4.34;100.00;94238.41;4979217;28;20239;-58
2021/12/27 01:03:20;;;;;;;6.60;5.40;;;;;;;4.33;100.00;94245.75;4979677;28;20196;-58
2021/12/27 01:05:46;;;;;;;5.23;4.57;;;;;;;4.33;100.00;94236.88;4979622;28;20203;-57
2021/12/27 01:08:12;;;;;;;6.23;4.47;;;;;;;4.34;100.00;94230.31;4979850;28;20282;-57
2021/12/27 01:16:10;;;;;;;5.03;4.53;;;;;;;4.32;100.00;94233.41;4996690;28;20196;-57
2021/12/27 01:18:42;;;;;;;5.80;4.90;;;;;;;4.31;100.00;94237.28;4979752;28;20192;-58
2021/12/27 01:21:10;;;;;;;5.13;4.43;;;;;;;4.32;100.00;94243.44;4979532;28;20218;-57
2021/12/27 01:23:36;;;;;;;5.80;4.90;;;;;;;4.32;100.00;94248.84;4979476;28;20278;-58
2021/12/27 01:26:02;;;;;;;6.23;4.80;;;;;;;4.32;100.00;94248.84;4979670;28;20283;-57
2021/12/27 01:28:27;;;;;;;4.77;4.27;;;;;;;4.31;100.00;94241.91;4979285;28;20230;-57
2021/12/27 01:30:52;;;;;;;5.23;4.40;;;;;;;4.34;100.00;94246.53;4979394;28;20199;-63
2021/12/27 01:33:21;;;;;;;5.40;4.90;;;;;;;4.35;100.00;94242.66;4979922;28;20303;-62
2021/12/27 01:35:47;;;;;;;6.00;4.63;;;;;;;4.36;100.00;94238.78;4979703;28;20184;-59
2021/12/27 01:38:14;;;;;;;4.90;4.40;;;;;;;4.38;100.00;94248.06;4979165;28;20664;-59
2021/12/27 01:40:43;;;;;;;5.83;4.53;;;;;;;4.41;100.00;94247.25;4979163;28;20306;-59
2021/12/27 01:43:10;;;;;;;5.77;5.00;;;;;;;4.39;100.00;94235.31;4978950;28;20192;-60
2021/12/27 01:45:38;;;;;;;7.73;4.67;;;;;;;4.35;100.00;94234.56;4978905;28;20208;-59
2021/12/27 01:48:06;;;;;;;5.10;4.50;;;;;;;4.33;100.00;94236.88;4979529;28;20195;-59
2021/12/27 01:50:32;;;;;;;5.90;5.10;;;;;;;4.33;100.00;94239.59;4979548;28;20196;-73
2021/12/27 01:52:57;;;;;;;6.97;5.20;;;;;;;4.30;100.00;94237.66;4978894;28;20279;-59
2021/12/27 01:55:23;;;;;;;5.43;4.90;;;;;;;4.25;100.00;94228.03;4979620;28;20207;-58
2021/12/27 01:57:48;;;;;;;5.47;4.70;;;;;;;4.25;100.00;94230.72;4979385;28;20199;-58
2021/12/27 02:00:14;;;;;;;5.70;4.87;;;;;;;4.23;100.00;94224.19;4978773;28;20216;-58
2021/12/27 02:02:39;;;;;;;6.17;5.23;;;;;;;4.23;100.00;94226.88;4978065;28;20192;-59
2021/12/27 02:05:05;;;;;;;6.00;4.97;;;;;;;4.21;100.00;94227.28;4978900;28;20191;-59
2021/12/27 02:07:30;;;;;;;6.97;5.67;;;;;;;4.19;100.00;94224.19;4978756;28;20195;-58
2021/12/27 02:10:02;;;;;;;6.90;5.30;;;;;;;4.20;100.00;94231.13;4978760;28;20227;-58
2021/12/27 02:12:32;;;;;;;6.80;5.17;;;;;;;4.22;100.00;94236.91;4978702;28;20191;-65
2021/12/27 02:14:57;;;;;;;7.60;6.30;;;;;;;4.25;100.00;94222.63;4978702;28;20187;-65
2021/12/27 02:17:24;;;;;;;6.70;5.50;;;;;;;4.21;100.00;94231.88;4978365;28;20202;-65
2021/12/27 02:19:51;;;;;;;6.77;5.60;;;;;;;4.22;100.00;94233.44;4978522;28;20245;-65
2021/12/27 02:22:16;;;;;;;7.53;5.60;;;;;;;4.21;100.00;94223.78;4978296;28;20196;-65
2021/12/27 02:24:42;;;;;;;5.77;5.17;;;;;;;4.18;100.00;94213.78;4978792;28;20191;-66
2021/12/27 02:27:07;;;;;;;6.83;5.20;;;;;;;4.14;100.00;94215.69;4978155;28;20238;-57
2021/12/27 02:29:33;;;;;;;8.20;5.37;;;;;;;4.16;100.00;94213.41;4978444;28;20199;-64
2021/12/27 02:31:59;;;;;;;5.73;5.13;;;;;;;4.18;100.00;94221.91;4978626;28;20276;-64
2021/12/27 02:34:24;;;;;;;5.73;5.07;;;;;;;4.16;100.00;94216.88;4978351;28;20183;-64
2021/12/27 02:36:49;;;;;;;5.77;4.67;;;;;;;4.22;100.00;94211.84;4978214;28;20211;-64
2021/12/27 02:39:16;;;;;;;7.27;5.50;;;;;;;4.19;100.00;94212.63;4978663;28;20326;-64
2021/12/27 02:41:41;;;;;;;5.57;4.63;;;;;;;4.17;100.00;94220.31;4978388;28;20208;-64
2021/12/27 02:44:07;;;;;;;5.90;4.70;;;;;;;4.14;100.00;94213.00;4977835;28;20195;-74
2021/12/27 02:46:32;;;;;;;6.63;4.63;;;;;;;4.17;100.00;94210.31;4978559;28;20188;-62
2021/12/27 02:48:58;;;;;;;6.40;5.00;;;;;;;4.19;100.00;94212.63;4977992;28;20215;-75
2021/12/27 02:51:23;;;;;;;5.57;4.70;;;;;;;4.17;100.00;94209.53;4978072;28;20192;-75
2021/12/27 02:53:50;;;;;;;6.57;5.03;;;;;;;4.14;100.00;94204.91;4978522;28;20196;-76
2021/12/27 02:56:17;;;;;;;4.70;3.97;;;;;;;4.10;100.00;94206.84;4978574;28;20278;-76
2021/12/27 02:58:43;;;;;;;5.73;4.70;;;;;;;4.10;100.00;94206.84;4977982;28;20195;-75
2021/12/27 03:01:20;;;;;;;5.10;4.43;;;;;;;4.10;100.00;94209.53;4978072;28;20215;-75
2021/12/27 03:03:46;;;;;;;4.90;4.40;;;;;;;4.08;100.00;94211.88;4978176;28;20197;-70
2021/12/27 03:06:12;;;;;;;5.43;4.47;;;;;;;4.09;100.00;94208.00;4978195;28;20452;-69
2021/12/27 03:08:39;;;;;;;6.53;4.80;;;;;;;4.10;100.00;94209.53;4977595;28;20192;-69
2021/12/27 03:11:06;;;;;;;5.00;4.40;;;;;;;4.11;100.00;94213.81;4977572;28;20199;-69
2021/12/27 03:13:34;;;;;;;6.07;4.70;;;;;;;4.13;100.00;94208.78;4978030;28;20180;-70
2021/12/27 03:16:03;;;;;;;9.47;4.60;;;;;;;4.14;100.00;94213.00;4978210;28;20192;-69
2021/12/27 03:18:29;;;;;;;5.17;4.37;;;;;;;4.17;100.00;94204.13;4978060;28;20192;-69
2021/12/27 03:20:57;;;;;;;5.67;4.30;;;;;;;4.19;100.00;94201.81;4977649;28;20203;-57
2021/12/27 03:23:22;;;;;;;7.20;4.27;;;;;;;4.20;100.00;94203.34;4978164;28;20206;-65
2021/12/27 03:25:48;;;;;;;5.97;4.30;;;;;;;4.21;100.00;94204.88;4977801;28;20283;-68
2021/12/27 03:28:14;;;;;;;5.77;4.57;;;;;;;4.22;100.00;94201.03;4977841;28;20188;-67
2021/12/27 03:30:40;;;;;;;6.67;4.27;;;;;;;4.20;100.00;94193.31;4977749;28;20258;-68
2021/12/27 03:33:06;;;;;;;5.27;4.20;;;;;;;4.21;100.00;94200.25;4977520;28;20211;-68
2021/12/27 03:35:38;;;;;;;4.63;3.57;;;;;;;4.20;100.00;94190.63;4977988;28;20188;-68
2021/12/27 03:38:07;;;;;;;3.80;3.33;;;;;;;4.23;100.00;94194.47;4977826;28;20274;-68
2021/12/27 03:40:32;;;;;;;4.17;3.50;;;;;;;4.27;100.00;94197.91;4981336;28;20267;-65
2021/12/27 03:42:58;;;;;;;4.90;3.80;;;;;;;4.24;100.00;94188.66;4981456;28;20183;-65
2021/12/27 03:45:26;;;;;;;3.73;2.70;;;;;;;4.26;100.00;94188.28;4981361;28;20191;-64
2021/12/27 03:47:52;;;;;;;5.00;3.30;;;;;;;4.28;100.00;94194.03;4981120;28;20238;-64
2021/12/27 03:50:18;;;;;;;3.83;3.10;;;;;;;4.30;100.00;94197.13;4981692;28;20192;-64
2021/12/27 03:52:43;;;;;;;4.33;3.00;;;;;;;4.31;100.00;94195.97;4981153;28;20215;-64
2021/12/27 03:55:10;;;;;;;3.73;2.93;;;;;;;4.33;100.00;94193.66;4981267;28;20239;-64
2021/12/27 03:57:38;;;;;;;3.97;3.30;;;;;;;4.36;100.00;94187.44;4981245;28;20220;-62
2021/12/27 04:03:00;;;;;;;3.67;2.90;;;;;;;4.35;100.00;94194.03;4968446;28;20231;-68
2021/12/27 04:05:27;;;;;;;3.43;2.83;;;;;;;4.37;100.00;94186.31;4981546;28;20196;-68
2021/12/27 04:08:00;;;;;;;5.23;2.97;;;;;;;4.37;100.00;94180.91;4980798;28;20188;-69
2021/12/27 04:10:27;;;;;;;3.00;2.70;;;;;;;4.40;100.00;94183.56;4981311;28;20195;-70
2021/12/27 04:12:52;;;;;;;3.30;2.70;;;;;;;4.40;100.00;94180.13;4980755;28;20223;-70
2021/12/27 04:15:18;;;;;;;4.63;2.93;;;;;;;4.38;100.00;94182.44;4981071;28;20188;-69
2021/12/27 04:17:43;;;;;;;4.30;2.70;;;;;;;4.37;100.00;94183.59;4980733;28;20250;-59
2021/12/27 04:20:09;;;;;;;4.07;2.90;;;;;;;4.36;100.00;94187.44;4980661;28;20223;-67
2021/12/27 04:22:34;;;;;;;2.60;2.40;;;;;;;4.37;100.00;94186.31;4980764;28;20189;-69
2021/12/27 04:25:01;;;;;;;2.80;2.13;;;;;;;4.36;100.00;94179.34;4980342;28;20184;-68
2021/12/27 04:27:26;;;;;;;3.10;2.80;;;;;;;4.36;100.00;94184.75;4980495;28;20194;-68
2021/12/27 04:29:52;;;;;;;3.00;2.43;;;;;;;4.37;100.00;94175.50;4980440;28;20287;-70
2021/12/27 04:32:17;;;;;;;2.67;2.27;;;;;;;4.38;100.00;94182.44;4980865;28;20172;-66
2021/12/27 04:34:43;;;;;;;2.53;2.13;;;;;;;4.40;100.00;94180.13;4980107;28;20184;-64
2021/12/27 04:37:08;;;;;;;3.00;2.40;;;;;;;4.38;100.00;94180.50;4981028;28;20203;-59
2021/12/27 04:39:33;;;;;;;2.43;2.23;;;;;;;4.40;100.00;94191.69;4980676;28;20184;-63
2021/12/27 04:41:59;;;;;;;3.70;2.30;;;;;;;4.39;100.00;94189.38;4980147;28;20219;-63
2021/12/27 04:44:24;;;;;;;2.30;2.10;;;;;;;4.42;100.00;94180.47;4980046;28;20216;-63
2021/12/27 04:46:50;;;;;;;2.37;2.00;;;;;;;4.38;100.00;94190.53;4980190;28;20192;-63
2021/12/27 04:49:15;;;;;;;2.30;1.83;;;;;;;4.39;100.00;94183.97;4980045;28;20202;-63
2021/12/27 04:51:40;;;;;;;2.50;2.10;;;;;;;4.38;100.00;94199.44;4979516;28;20192;-63
2021/12/27 04:54:07;;;;;;;2.23;2.00;;;;;;;4.37;100.00;94191.72;4979865;28;20223;-67
2021/12/27 04:56:32;;;;;;;6.30;2.23;;;;;;;4.35;100.00;94199.44;4980073;28;20337;-66
2021/12/27 04:58:58;;;;;;;2.20;1.97;;;;;;;4.32;100.00;94189.41;4979963;28;20188;-64
2021/12/27 05:01:23;;;;;;;3.27;2.23;;;;;;;4.28;100.00;94184.03;4979738;28;20262;-64
2021/12/27 05:03:49;;;;;;;2.23;1.80;;;;;;;4.27;100.00;94187.13;4979804;28;20183;-64
2021/12/27 05:06:14;;;;;;;2.20;1.70;;;;;;;4.24;100.00;94187.88;4979704;28;20275;-65
2021/12/27 05:08:41;;;;;;;4.37;2.93;;;;;;;4.23;100.00;94189.06;4979464;28;20198;-65
2021/12/27 05:11:07;;;;;;;2.97;1.80;;;;;;;4.21;100.00;94183.25;4980286;28;20245;-58
2021/12/27 05:13:33;;;;;;;2.70;1.97;;;;;;;4.19;100.00;94180.22;4979709;28;20207;-67
2021/12/27 05:16:00;;;;;;;2.80;1.93;;;;;;;4.18;100.00;94184.06;4980201;28;20188;-63
2021/12/27 05:18:25;;;;;;;4.80;2.13;;;;;;;4.17;100.00;94179.81;4978828;28;20188;-63
2021/12/27 05:20:51;;;;;;;2.37;1.90;;;;;;;4.18;100.00;94175.97;4979436;28;20219;-65
2021/12/27 05:23:16;;;;;;;4.00;1.90;;;;;;;4.16;100.00;94186.38;4979352;28;20195;-65
2021/12/27 05:25:41;;;;;;;2.27;2.00;;;;;;;4.18;100.00;94184.81;4979420;28;20208;-65
2021/12/27 05:28:07;;;;;;;3.00;2.00;;;;;;;4.19;100.00;94180.97;4979474;28;20195;-65
2021/12/27 05:30:32;;;;;;;2.97;1.77;;;;;;;4.22;100.00;94179.44;4979362;28;20192;-67
2021/12/27 05:32:57;;;;;;;3.10;1.90;;;;;;;4.23;100.00;94175.56;4979285;28;20295;-72
2021/12/27 05:35:23;;;;;;;3.10;2.00;;;;;;;4.24;100.00;94177.09;4979007;28;20196;-71
2021/12/27 05:37:48;;;;;;;3.00;2.00;;;;;;;4.22;100.00;94171.31;4979176;28;20242;-71
2021/12/27 05:40:18;;;;;;;2.37;1.80;;;;;;;4.21;100.00;94180.56;4978846;28;20287;-71
2021/12/27 05:42:43;;;;;;;2.70;1.97;;;;;;;4.18;100.00;94178.66;4979116;28;20223;-71
2021/12/27 05:45:09;;;;;;;2.67;2.00;;;;;;;4.13;100.00;94179.06;4979174;28;20187;-71
2021/12/27 05:47:35;;;;;;;2.70;1.87;;;;;;;4.08;100.00;94184.88;4979379;28;20188;-72
2021/12/27 05:50:00;;;;;;;3.43;2.17;;;;;;;4.04;100.00;94181.41;4979076;28;20212;-66
2021/12/27 05:52:26;;;;;;;3.87;2.27;;;;;;;4.02;100.00;94178.31;4979220;28;20187;-68
2021/12/27 05:54:51;;;;;;;3.50;2.03;;;;;;;4.01;100.00;94174.09;4978538;28;20195;-69
2021/12/27 05:57:16;;;;;;;2.30;1.70;;;;;;;4.00;100.00;94177.97;4978852;28;20192;-67
2021/12/27 05:59:42;;;;;;;2.00;1.70;;;;;;;4.00;100.00;94167.91;4978868;28;20380;-68
2021/12/27 06:02:07;;;;;;;3.10;1.90;;;;;;;4.01;100.00;94174.09;4978795;28;20215;-67
2021/12/27 06:04:33;;;;;;;2.77;2.10;;;;;;;4.01;100.00;94174.88;4978895;28;20194;-69
2021/12/27 06:06:58;;;;;;;2.07;1.77;;;;;;;4.01;100.00;94166.00;4978686;28;20215;-65
2021/12/27 06:09:23;;;;;;;4.30;1.70;;;;;;;3.96;100.00;94166.41;4978814;28;20286;-58
2021/12/27 06:11:49;;;;;;;2.33;1.80;;;;;;;3.93;100.00;94162.53;4978642;28;20191;-59
2021/12/27 06:14:14;;;;;;;4.80;1.90;;;;;;;3.90;100.00;94162.56;4978538;28;20276;-58
2021/12/27 06:16:39;;;;;;;2.50;1.80;;;;;;;3.86;100.00;94167.19;4978556;28;20250;-58
2021/12/27 06:19:05;;;;;;;2.77;2.00;;;;;;;3.83;100.00;94162.59;4978564;28;20216;-58
2021/12/27 06:21:33;;;;;;;2.43;1.80;;;;;;;3.80;100.00;94163.34;4977856;28;20254;-58
2021/12/27 06:23:58;;;;;;;2.33;1.77;;;;;;;3.77;100.00;94161.44;4978494;28;20183;-58
2021/12/27 06:26:24;;;;;;;6.93;2.00;;;;;;;3.76;100.00;94157.19;4978772;28;20192;-59
2021/12/27 06:28:49;;;;;;;3.27;1.80;;;;;;;3.77;100.00;94158.72;4978413;28;20175;-67
2021/12/27 06:31:14;;;;;;;2.10;1.90;;;;;;;3.77;100.00;94151.41;4978293;28;20187;-67
2021/12/27 06:33:40;;;;;;;2.10;1.80;;;;;;;3.79;100.00;94153.72;4978168;28;20247;-68
2021/12/27 06:36:05;;;;;;;2.80;2.20;;;;;;;3.77;100.00;94156.03;4978567;28;20274;-68
2021/12/27 06:38:31;;;;;;;2.30;1.90;;;;;;;3.75;100.00;94155.66;4978864;28;20183;-67
2021/12/27 06:40:58;;;;;;;2.33;1.77;;;;;;;3.73;100.00;94150.66;4978108;28;20199;-69
2021/12/27 06:43:24;;;;;;;3.17;1.73;;;;;;;3.74;100.00;94156.81;4978202;28;20203;-63
2021/12/27 06:45:50;;;;;;;3.60;1.90;;;;;;;3.76;100.00;94154.50;4978460;28;20184;-59
2021/12/27 06:48:15;;;;;;;2.77;2.13;;;;;;;3.77;100.00;94151.41;4978152;28;20188;-58
2021/12/27 06:50:41;;;;;;;5.20;2.70;;;;;;;3.80;100.00;94152.56;4978033;28;20180;-58
2021/12/27 06:53:07;;;;;;;3.57;1.93;;;;;;;3.81;100.00;94152.16;4978219;28;20230;-58
2021/12/27 06:55:32;;;;;;;2.33;1.90;;;;;;;3.83;100.00;94151.78;4977318;28;20223;-57
2021/12/27 06:57:57;;;;;;;2.27;1.70;;;;;;;3.82;100.00;94144.84;4977682;28;20194;-59
2021/12/27 07:00:23;;;;;;;3.50;1.90;;;;;;;3.81;100.00;94154.09;4977768;28;20214;-59
2021/12/27 07:02:48;;;;;;;3.33;2.40;;;;;;;3.80;100.00;94149.84;4978137;28;20188;-59
2021/12/27 07:05:14;;;;;;;2.80;1.83;;;;;;;3.82;100.00;94152.94;4978008;28;20199;-67
2021/12/27 07:07:40;;;;;;;2.60;2.20;;;;;;;3.79;100.00;94151.78;4977935;28;20273;-67
2021/12/27 07:10:09;;;;;;;5.43;2.20;;;;;;;3.79;100.00;94162.56;4977828;28;20219;-67
2021/12/27 07:12:34;;;;;;;5.10;2.70;;;;;;;3.80;100.00;94157.97;4978027;28;20198;-64
2021/12/27 07:15:00;;;;;;;4.87;2.90;;;;;;;3.80;100.00;94166.06;4980657;28;20195;-66
2021/12/27 07:17:26;;;;;;;2.50;2.20;;;;;;;3.79;100.00;94165.28;4981649;28;20191;-67
2021/12/27 07:19:51;;;;;;;2.90;2.07;;;;;;;3.81;100.00;94165.66;4981489;28;20249;-66
2021/12/27 07:22:17;;;;;;;5.20;2.33;;;;;;;3.83;100.00;94162.59;4981593;28;20207;-69
2021/12/27 07:24:42;;;;;;;2.83;2.23;;;;;;;3.84;100.00;94159.50;4980775;28;20195;-67
2021/12/27 07:27:07;;;;;;;5.87;2.90;;;;;;;3.87;100.00;94157.94;4981062;28;20191;-67
2021/12/27 07:29:33;;;;;;;3.53;2.60;;;;;;;3.89;100.00;94155.63;4981022;28;20196;-68
2021/12/27 07:31:59;;;;;;;6.30;4.20;;;;;;;3.91;100.00;94148.66;4981130;28;20196;-66
2021/12/27 07:34:24;;;;;;;18.10;11.83;;;;;;;3.95;100.00;94149.44;4980964;28;20195;-66
2021/12/27 07:36:52;;;;;;;6.17;3.53;;;;;;;3.91;100.00;94143.28;4981512;28;20238;-69
2021/12/27 07:39:18;;;;;;;6.80;4.00;;;;;;;3.89;100.00;94144.84;4998321;28;20320;-69
2021/12/27 07:41:44;;;;;;;5.97;3.80;;;;;;;3.91;100.00;94150.59;4981262;28;20212;-68
2021/12/27 07:44:10;;;;;;;10.40;4.57;;;;;;;3.88;100.00;94154.84;4981241;28;20279;-70
2021/12/27 07:46:35;;;;;;;5.90;3.73;;;;;;;3.92;100.00;94152.13;4981326;28;20187;-70
2021/12/27 07:49:02;;;;;;;6.23;4.10;;;;;;;3.88;100.00;94144.06;4981163;28;20271;-70
2021/12/27 07:51:28;;;;;;;6.23;4.47;;;;;;;3.95;100.00;94151.34;4980992;28;20192;-70
2021/12/27 07:53:54;;;;;;;6.47;4.60;;;;;;;4.01;100.00;94152.50;4980839;28;20207;-70
2021/12/27 07:56:19;;;;;;;10.67;6.77;;;;;;;4.14;100.00;94146.25;4981436;28;20199;-70
2021/12/27 07:58:44;;;;;;;7.13;4.87;;;;;;;4.20;100.00;94141.22;4981066;28;20195;-57
2021/12/27 08:01:10;;;;;;;5.77;3.90;;;;;;;4.24;100.00;94145.44;4981227;28;20216;-59
2021/12/27 08:03:35;;;;;;;4.67;3.57;;;;;;;4.36;100.00;94147.69;4980770;28;20196;-58
2021/12/27 08:06:00;;;;;;;6.03;3.80;;;;;;;4.40;100.00;94147.69;4980723;28;20567;-59
2021/12/27 08:08:26;;;;;;;5.10;3.83;;;;;;;4.38;100.00;94139.19;4980345;28;20279;-59
2021/12/27 08:10:51;;;;;;;5.57;4.13;;;;;;;4.52;100.00;94133.72;4980666;28;20203;-59
2021/12/27 08:13:17;;;;;;;6.30;4.17;;;;;;;4.66;100.00;94128.22;4981056;28;20227;-60
2021/12/27 08:15:42;;;;;;;4.47;4.07;;;;;;;5.02;100.00;94127.56;4997814;28;20196;-67
2021/12/27 08:18:07;;;;;;;8.10;4.27;;;;;;;5.02;100.00;94121.38;4980722;28;20221;-59
2021/12/27 08:20:33;;;;;;;5.13;4.50;;;;;;;4.95;100.00;94124.16;4980432;28;20255;-57
2021/12/27 08:22:58;;;;;;;10.83;4.83;;;;;;;4.73;100.00;94128.19;4980652;28;20252;-58
2021/12/27 08:25:24;;;;;;;5.70;4.30;;;;;;;4.67;100.00;94129.75;4978853;28;20191;-58
2021/12/27 08:27:50;;;;;;;5.80;5.00;;;;;;;4.56;100.00;94129.06;4980492;28;20214;-57
2021/12/27 08:30:16;;;;;;;6.97;4.57;;;;;;;4.53;100.00;94127.13;4980591;28;20219;-58
2021/12/27 08:32:43;;;;;;;7.00;4.90;;;;;;;4.50;100.00;94130.63;4980196;28;20235;-58
2021/12/27 08:35:10;;;;;;;5.47;4.83;;;;;;;4.51;100.00;94132.19;4980592;28;20200;-63
2021/12/27 08:37:37;;;;;;;5.70;4.60;;;;;;;4.45;100.00;94122.94;4980295;28;20184;-67
2021/12/27 08:40:04;;;;;;;6.17;5.03;;;;;;;4.40;100.00;94128.78;4980672;28;20188;-67
2021/12/27 08:42:30;;;;;;;5.77;4.73;;;;;;;4.52;100.00;94129.06;4979932;28;20299;-66
2021/12/27 08:44:55;;;;;;;7.53;5.17;;;;;;;4.50;100.00;94119.81;4980193;28;20278;-67
2021/12/27 08:47:21;;;;;;;6.30;5.10;;;;;;;4.62;100.00;94122.06;4980114;28;20188;-67
2021/12/27 08:49:46;;;;;;;6.37;5.10;;;;;;;4.58;100.00;94126.72;4980166;28;20203;-67
2021/12/27 08:52:12;;;;;;;7.63;5.23;;;;;;;4.66;100.00;94112.75;4980315;28;20311;-65
2021/12/27 08:54:38;;;;;;;5.67;4.70;;;;;;;4.77;100.00;94107.28;4980369;28;20335;-58
2021/12/27 08:57:05;;;;;;;8.53;6.00;;;;;;;4.90;100.00;94116.44;4979936;28;20192;-67
2021/12/27 08:59:32;;;;;;;6.97;5.30;;;;;;;5.05;100.00;94107.06;4997163;28;20218;-68
2021/12/27 09:01:58;;;;;;;6.37;5.20;;;;;;;4.97;100.00;94108.28;4979763;28;20258;-72
2021/12/27 09:04:24;;;;;;;11.43;5.40;;;;;;;4.96;100.00;94109.47;4979498;28;20196;-64
2021/12/27 09:06:50;;;;;;;6.27;5.23;;;;;;;5.10;100.00;94106.63;4979302;28;20189;-66
2021/12/27 09:09:15;;;;;;;7.53;5.40;;;;;;;5.14;100.00;94110.09;4979692;28;20207;-67
2021/12/27 09:11:42;;;;;;;5.60;4.90;;;;;;;5.17;100.00;94103.88;4979201;28;20236;-61
2021/12/27 09:14:07;;;;;;;7.17;5.40;;;;;;;5.23;100.00;94105.75;4979217;28;20195;-70
2021/12/27 09:16:33;;;;;;;6.77;5.10;;;;;;;5.29;100.00;94109.56;4978671;28;20196;-67
2021/12/27 09:18:58;;;;;;;6.57;5.03;;;;;;;5.29;100.00;94106.06;4979426;28;20197;-68
2021/12/27 09:21:24;;;;;;;7.87;4.40;;;;;;;5.37;100.00;94091.31;4979296;28;20259;-66
2021/12/27 09:23:50;;;;;;;8.30;4.53;;;;;;;5.47;100.00;94101.25;4979049;28;20198;-69
2021/12/27 09:26:15;;;;;;;5.63;4.50;;;;;;;5.60;100.00;94099.56;4979359;28;20190;-69
2021/12/27 09:28:41;;;;;;;5.80;3.93;;;;;;;5.61;100.00;94087.59;4978990;28;20198;-67
2021/12/27 09:31:06;;;;;;;5.03;3.90;;;;;;;5.57;100.00;94078.75;4979152;28;20188;-58
2021/12/27 09:33:31;;;;;;;7.80;3.43;;;;;;;5.80;100.00;94081.56;4978931;28;20241;-57
2021/12/27 09:35:57;;;;;;;6.07;3.03;;;;;;;5.95;100.00;94077.53;4978614;28;20192;-58
2021/12/27 09:38:23;;;;;;;5.57;3.77;;;;;;;6.02;100.00;94078.19;4979794;28;20183;-58
2021/12/27 09:40:49;;;;;;;4.10;3.07;;;;;;;5.98;100.00;94068.59;4978634;28;20216;-60
2021/12/27 09:43:14;;;;;;;5.43;3.17;;;;;;;5.86;100.00;94077.25;4978891;28;20284;-57
2021/12/27 09:45:40;;;;;;;4.37;3.07;;;;;;;6.02;100.00;94078.19;4979290;28;20193;-59
2021/12/27 09:48:05;;;;;;;4.57;3.37;;;;;;;6.13;100.00;94073.41;4978892;28;20299;-65
2021/12/27 09:50:42;;;;;;;3.83;2.90;;;;;;;6.29;100.00;94070.91;4978315;28;20200;-64
2021/12/27 09:53:08;;;;;;;5.03;3.23;;;;;;;6.37;100.00;94072.31;4978864;28;20200;-61
2021/12/27 09:55:35;;;;;;;5.30;3.43;;;;;;;6.71;100.00;94056.72;4978669;28;20197;-62
2021/12/27 09:58:00;;;;;;;3.30;3.00;;;;;;;7.26;100.00;94061.63;4978894;28;20287;-62
2021/12/27 10:00:27;;;;;;;5.03;3.73;;;;;;;7.66;100.00;94057.03;4978759;28;20295;-61
2021/12/27 10:02:54;;;;;;;3.33;3.00;;;;;;;7.68;100.00;94049.25;4978754;28;20191;-61
2021/12/27 10:05:21;;;;;;;6.10;3.20;;;;;;;7.75;100.00;94046.38;4978635;28;20205;-62
2021/12/27 10:07:47;;;;;;;3.47;2.77;;;;;;;8.44;100.00;94038.72;4978392;28;20188;-58
2021/12/27 10:10:12;;;;;;;3.73;2.60;;;;;;;8.98;100.00;94037.06;4978551;28;20226;-65
2021/12/27 10:12:38;;;;;;;4.10;2.90;;;;;;;9.20;100.00;94040.81;4978569;28;20180;-66
2021/12/27 10:15:07;;;;;;;3.30;2.57;;;;;;;9.66;100.00;94048.53;4978453;28;20189;-64
2021/12/27 10:17:37;;;;;;;5.60;2.50;;;;;;;10.21;100.00;94043.94;4978550;28;20184;-63
2021/12/27 10:20:14;;;;;;;3.10;2.80;;;;;;;10.25;100.00;94055.53;4978037;28;20181;-64
2021/12/27 10:22:46;;;;;;;3.10;2.50;;;;;;;10.63;100.00;94061.81;4977660;28;20198;-65
2021/12/27 10:25:20;;;;;;;4.83;3.23;;;;;;;10.91;100.00;94071.84;4977171;28;20194;-63
2021/12/27 10:27:50;;;;;;;3.67;3.03;;;;;;;11.26;100.00;94074.22;4978188;28;20190;-59
2021/12/27 10:30:18;;;;;;;2.50;2.30;;;;;;;11.70;100.00;94075.16;4978507;28;20188;-59
2021/12/27 10:33:00;;;;;;;3.03;2.50;;;;;;;11.15;100.00;94086.72;4977963;28;20218;-61
2021/12/27 10:35:34;;;;;;;2.97;2.60;;;;;;;11.25;100.00;94088.34;4978697;28;20262;-60
2021/12/27 10:38:16;;;;;;;2.80;2.50;;;;;;;11.43;100.00;94086.56;4978606;28;20187;-59
2021/12/27 10:41:11;;;;;;;2.60;2.20;;;;;;;10.61;100.00;94086.81;4995527;28;20298;-60
2021/12/27 10:43:43;;;;;;;3.03;2.60;;;;;;;10.20;100.00;94080.63;4965376;28;20198;-59
2021/12/27 10:46:17;;;;;;;3.57;2.67;;;;;;;9.86;100.00;94072.94;4977807;28;20199;-58
2021/12/27 10:48:59;;;;;;;3.30;2.63;;;;;;;9.58;100.00;94073.72;4977650;28;20197;-59
2021/12/27 10:51:26;;;;;;;2.73;2.50;;;;;;;9.29;100.00;94068.19;4977987;28;20188;-59
2021/12/27 10:53:57;;;;;;;2.70;2.50;;;;;;;9.08;100.00;94060.56;4977838;28;20220;-59
2021/12/27 10:56:25;;;;;;;2.90;2.70;;;;;;;8.93;100.00;94056.63;4978063;28;20190;-59
2021/12/27 10:58:51;;;;;;;5.47;3.23;;;;;;;8.91;100.00;94050.84;4978053;28;20252;-58
2021/12/27 11:01:19;;;;;;;3.77;3.20;;;;;;;8.74;100.00;94043.84;4978251;28;20219;-58
2021/12/27 11:03:47;;;;;;;4.43;2.93;;;;;;;8.68;100.00;94042.06;4978142;28;20195;-64
2021/12/27 11:06:17;;;;;;;4.07;3.40;;;;;;;8.59;100.00;94042.66;4978301;28;20180;-57
2021/12/27 11:08:44;;;;;;;6.37;4.60;;;;;;;8.43;100.00;94034.47;4977855;28;20275;-58
2021/12/27 11:11:10;;;;;;;6.13;3.90;;;;;;;8.33;100.00;94035.47;4977801;28;20242;-54
2021/12/27 11:13:37;;;;;;;11.03;8.93;;;;;;;8.32;100.00;94019.56;4977604;28;20247;-59
2021/12/27 11:16:03;;;;;;;4.10;3.50;;;;;;;8.26;100.00;94013.88;4977064;28;20246;-60
2021/12/27 11:18:28;;;;;;;3.63;3.33;;;;;;;8.16;100.00;94020.25;4977718;28;20196;-59
2021/12/27 11:21:00;;;;;;;4.10;3.63;;;;;;;8.06;100.00;94009.63;4977686;28;20222;-59
2021/12/27 11:23:28;;;;;;;3.50;3.20;;;;;;;8.05;100.00;93997.97;4978240;28;20203;-59
2021/12/27 11:26:03;;;;;;;5.37;3.60;;;;;;;8.11;100.00;94000.97;4977440;28;20640;-58
2021/12/27 11:28:40;;;;;;;6.30;3.50;;;;;;;7.98;100.00;93984.53;4977807;28;20202;-58
2021/12/27 11:31:24;;;;;;;6.43;3.87;;;;;;;7.96;100.00;93981.50;4977586;28;20199;-59
2021/12/27 11:33:58;;;;;;;5.00;3.50;;;;;;;7.95;100.00;93982.69;4977061;28;20224;-58
2021/12/27 11:36:36;;;;;;;4.60;3.70;;;;;;;7.96;100.00;93973.34;4977452;28;20243;-58
2021/12/27 11:39:27;;;;;;;4.30;3.80;;;;;;;7.98;100.00;93965.50;4977412;28;20201;-58